首页
METAR-TAF:

METAR-TAF

机场 :

达拉斯/沃思堡国际机场

達拉斯 / 沃思堡, 得克萨斯州, 美国

纬度: 32-53-49N, 经度: 097-01-19W, 海拔: 183米

当前天气观测

该预报发布于1小时和8分钟前的00:53 UTC
风速4节,风向
温度 16°C
湿度 45%
气压 1023 hPa
能見度: 16.1公里
少量云层高于21000英尺
散云层高于30000英尺

METAR: KDFW 220053Z 10004KT 10SM FEW210 SCT300 16/04 A3022 RMK AO2 SLP230 T01560039

时间: 21:01 (02:01 UTC)

预报

该预报发布于2小时和36分钟前的23:25 UTC
预报有效从22日的 00点(UTC)到 23日的 06点(UTC)
风速5节,风向
能見度: 10公里
散云层高于20000英尺
多云层高于30000英尺
从 22日的 1100点(UTC)
风速6节,风向南转南东
能見度: 10公里
多云层高于13000英尺

TAF: KDFW 212325Z 2200/2306 08005KT P6SM SCT200 BKN300 FM221100 15006KT P6SM BKN130

超过4000个机场的气象观测和天气预报(METAR&TAF报告)。

可查询的气象台以黄色和红色小点在地图上表示。

将鼠标移到小点上方,可查看气象台名称。

然后点击查看天气观测和预报。

如需切换地图:点击带黑十字的绿色按钮放大地图;点击带横线的绿色按钮缩小地图;或者点击绿色箭头查看邻近地区的地图。


METAR-TAF: